Mashpee, MA (02649)

1:28 PM EST on November 28, 2014 (GMT -0500)
N1RCW | Change Station
CLOSE
Current Station
Personal Weather Station
Location: Forestdale, MA
Elevation: 141 ft
Nearby Weather Stations
Active Advisory: Winter Weather Statement Active Notice: Public Information Statement

Elev 141 ft 41.67 °N, 70.50 °W | Updated 4 seconds ago

Mostly Cloudy
Mostly Cloudy
32.7 °F
Feels Like 26 °F
N
7.0
Wind Variable Wind from NNW
Gusts 7.0 mph

Today
High -- | Low -- °F
--% Chance of Precip.
Yesterday
High -- | Low -- °F
Precip. -- in
6:46 AM 4:13 PM
Waxing Crescent, 42% visible
Pressure 30.04 in
Visibility 10.0 miles
Clouds Few 2600 ft
Mostly Cloudy 6000 ft
Mostly Cloudy 7500 ft
Windchill 26 °F
Dew Point 28 °F
Humidity 83%
Rainfall 0.00 in
Snow Depth Not available.
UV 1 out of 12
Pollen .10 out of 12
Air Quality Not available.
Flu Activity Not available.
METAR KFMH 281815Z 34010G17KT 10SM FEW026 BKN060 BKN075 01/M04 A3004 RMK AO2 OCNL -SHSN

More Conditions Fewer Conditions

Pressure 30.04 in
Visibility 10.0 miles
Clouds Few 2600 ft
Mostly Cloudy 6000 ft
Mostly Cloudy 7500 ft
Windchill 26 °F
Dew Point 28 °F
Humidity 83%
Rainfall 0.00 in
Snow Depth Not available.
UV 1 out of 12
Pollen .10 out of 12
Air Quality Not available.
Flu Activity Not available.
METAR KFMH 281815Z 34010G17KT 10SM FEW026 BKN060 BKN075 01/M04 A3004 RMK AO2 OCNL -SHSN

More Conditions Fewer Conditions

10-Day Weather Forecast

Almanac

Astronomy

Nov. 28, 2014 Rise Set
Actual Time
Civil Twilight
Nautical Twilight
Astronomical Twilight
Moon
Length of Visible Light
Length of Day
Tomorrow will be .
, % of the Moon is Illuminated

Today's Extremes

State Highs State Lows

Community

WunderPhotos

Upload Photos

1,774,251 photos uploaded!

WunderBlogs® & News

Nearby

Air Quality

  Air Quality AQ Index Pollutant
Not available.

Snow Depth

Station Depth Elevation

Earthquake Activity

City Distance Mag. Time & Date
Minimum magnitude displayed is 2.5.

Coastal Water Temperatures

Place Temperature

Nearby Weather Stations